sensor_id;sensor_type;location;lat;lon;timestamp;P1;durP1;ratioP1;P2;durP2;ratioP2
63110;SDS011;49201;53.426;10.300;2023-03-01T00:01:12;24.60;;;12.63;;
63110;SDS011;49201;53.426;10.300;2023-03-01T00:03:40;20.50;;;12.37;;
63110;SDS011;49201;53.426;10.300;2023-03-01T00:06:07;27.93;;;13.50;;
63110;SDS011;49201;53.426;10.300;2023-03-01T00:08:32;24.63;;;12.80;;
63110;SDS011;49201;53.426;10.300;2023-03-01T00:13:31;24.37;;;12.40;;
63110;SDS011;49201;53.426;10.300;2023-03-01T00:15:57;20.70;;;10.70;;
63110;SDS011;49201;53.426;10.300;2023-03-01T00:18:23;17.23;;;10.47;;
63110;SDS011;49201;53.426;10.300;2023-03-01T00:20:49;18.83;;;9.97;;
63110;SDS011;49201;53.426;10.300;2023-03-01T00:23:17;16.50;;;10.03;;
63110;SDS011;49201;53.426;10.300;2023-03-01T00:25:43;14.30;;;8.97;;
63110;SDS011;49201;53.426;10.300;2023-03-01T00:28:08;17.47;;;10.37;;
63110;SDS011;49201;53.426;10.300;2023-03-01T00:30:34;13.60;;;9.00;;
63110;SDS011;49201;53.426;10.300;2023-03-01T00:32:59;16.23;;;9.90;;
63110;SDS011;49201;53.426;10.300;2023-03-01T00:35:25;13.00;;;8.40;;
63110;SDS011;49201;53.426;10.300;2023-03-01T00:37:50;16.10;;;8.43;;
63110;SDS011;49201;53.426;10.300;2023-03-01T00:40:23;12.83;;;7.90;;
63110;SDS011;49201;53.426;10.300;2023-03-01T00:42:49;14.97;;;8.33;;
63110;SDS011;49201;53.426;10.300;2023-03-01T00:45:14;12.57;;;7.70;;
63110;SDS011;49201;53.426;10.300;2023-03-01T00:47:40;13.30;;;8.07;;
63110;SDS011;49201;53.426;10.300;2023-03-01T00:50:06;12.80;;;8.30;;
63110;SDS011;49201;53.426;10.300;2023-03-01T00:52:32;13.87;;;8.07;;
63110;SDS011;49201;53.426;10.300;2023-03-01T00:54:58;12.93;;;8.63;;
63110;SDS011;49201;53.426;10.300;2023-03-01T00:57:23;16.37;;;8.53;;
63110;SDS011;49201;53.426;10.300;2023-03-01T00:59:49;12.87;;;8.17;;
63110;SDS011;49201;53.426;10.300;2023-03-01T01:02:14;13.07;;;8.70;;
63110;SDS011;49201;53.426;10.300;2023-03-01T01:04:40;13.40;;;8.63;;
63110;SDS011;49201;53.426;10.300;2023-03-01T01:07:06;13.57;;;8.47;;
63110;SDS011;49201;53.426;10.300;2023-03-01T01:09:31;14.00;;;8.63;;
63110;SDS011;49201;53.426;10.300;2023-03-01T01:11:56;11.93;;;8.17;;
63110;SDS011;49201;53.426;10.300;2023-03-01T01:14:22;12.50;;;8.23;;
63110;SDS011;49201;53.426;10.300;2023-03-01T01:16:47;14.57;;;8.30;;
63110;SDS011;49201;53.426;10.300;2023-03-01T01:19:13;12.17;;;8.30;;
63110;SDS011;49201;53.426;10.300;2023-03-01T01:21:39;14.30;;;8.50;;
63110;SDS011;49201;53.426;10.300;2023-03-01T01:24:06;13.40;;;8.63;;
63110;SDS011;49201;53.426;10.300;2023-03-01T01:26:33;13.70;;;8.37;;
63110;SDS011;49201;53.426;10.300;2023-03-01T01:28:59;14.87;;;8.37;;
63110;SDS011;49201;53.426;10.300;2023-03-01T01:31:25;12.50;;;8.43;;
63110;SDS011;49201;53.426;10.300;2023-03-01T01:33:53;15.40;;;8.17;;
63110;SDS011;49201;53.426;10.300;2023-03-01T01:36:20;15.83;;;9.07;;
63110;SDS011;49201;53.426;10.300;2023-03-01T01:38:46;11.07;;;8.17;;
63110;SDS011;49201;53.426;10.300;2023-03-01T01:41:12;12.50;;;8.17;;
63110;SDS011;49201;53.426;10.300;2023-03-01T01:43:39;12.77;;;7.97;;
63110;SDS011;49201;53.426;10.300;2023-03-01T01:46:28;12.37;;;8.23;;
63110;SDS011;49201;53.426;10.300;2023-03-01T01:48:58;17.67;;;8.23;;
63110;SDS011;49201;53.426;10.300;2023-03-01T01:51:31;10.80;;;8.07;;
63110;SDS011;49201;53.426;10.300;2023-03-01T01:54:06;10.73;;;7.40;;
63110;SDS011;49201;53.426;10.300;2023-03-01T01:56:36;14.63;;;7.87;;
63110;SDS011;49201;53.426;10.300;2023-03-01T01:59:05;12.13;;;8.10;;
63110;SDS011;49201;53.426;10.300;2023-03-01T02:01:31;12.90;;;8.27;;
63110;SDS011;49201;53.426;10.300;2023-03-01T02:03:56;12.90;;;7.90;;
63110;SDS011;49201;53.426;10.300;2023-03-01T02:06:31;11.23;;;6.80;;
63110;SDS011;49201;53.426;10.300;2023-03-01T02:09:03;10.97;;;6.93;;
63110;SDS011;49201;53.426;10.300;2023-03-01T02:11:37;10.03;;;7.50;;
63110;SDS011;49201;53.426;10.300;2023-03-01T02:14:03;13.10;;;7.57;;
63110;SDS011;49201;53.426;10.300;2023-03-01T02:16:30;10.20;;;7.00;;
63110;SDS011;49201;53.426;10.300;2023-03-01T02:18:56;12.57;;;7.60;;
63110;SDS011;49201;53.426;10.300;2023-03-01T02:23:55;10.97;;;7.10;;
63110;SDS011;49201;53.426;10.300;2023-03-01T02:29:06;12.50;;;7.13;;
63110;SDS011;49201;53.426;10.300;2023-03-01T02:31:32;11.67;;;6.97;;
63110;SDS011;49201;53.426;10.300;2023-03-01T02:34:07;10.10;;;6.93;;
63110;SDS011;49201;53.426;10.300;2023-03-01T02:36:40;11.03;;;6.80;;
63110;SDS011;49201;53.426;10.300;2023-03-01T02:39:11;10.50;;;6.63;;
63110;SDS011;49201;53.426;10.300;2023-03-01T02:41:44;10.13;;;5.73;;
63110;SDS011;49201;53.426;10.300;2023-03-01T02:44:13;11.00;;;6.40;;
63110;SDS011;49201;53.426;10.300;2023-03-01T02:46:57;10.00;;;6.90;;
63110;SDS011;49201;53.426;10.300;2023-03-01T02:49:28;9.83;;;5.67;;
63110;SDS011;49201;53.426;10.300;2023-03-01T02:57:43;10.37;;;6.43;;
63110;SDS011;49201;53.426;10.300;2023-03-01T03:00:12;9.43;;;6.23;;
63110;SDS011;49201;53.426;10.300;2023-03-01T03:02:45;8.80;;;5.53;;
63110;SDS011;49201;53.426;10.300;2023-03-01T03:05:21;10.30;;;6.00;;
63110;SDS011;49201;53.426;10.300;2023-03-01T03:07:57;8.57;;;5.37;;
63110;SDS011;49201;53.426;10.300;2023-03-01T03:10:27;8.97;;;6.07;;
63110;SDS011;49201;53.426;10.300;2023-03-01T03:12:58;9.23;;;5.87;;
63110;SDS011;49201;53.426;10.300;2023-03-01T03:15:25;10.60;;;6.17;;
63110;SDS011;49201;53.426;10.300;2023-03-01T03:17:56;10.27;;;5.93;;
63110;SDS011;49201;53.426;10.300;2023-03-01T03:20:23;9.13;;;5.93;;
63110;SDS011;49201;53.426;10.300;2023-03-01T03:22:52;8.40;;;5.63;;
63110;SDS011;49201;53.426;10.300;2023-03-01T03:25:20;9.07;;;5.67;;
63110;SDS011;49201;53.426;10.300;2023-03-01T03:27:47;10.20;;;5.77;;
63110;SDS011;49201;53.426;10.300;2023-03-01T03:30:15;12.03;;;6.10;;
63110;SDS011;49201;53.426;10.300;2023-03-01T03:32:44;10.43;;;5.87;;
63110;SDS011;49201;53.426;10.300;2023-03-01T03:35:17;8.17;;;5.47;;
63110;SDS011;49201;53.426;10.300;2023-03-01T03:37:43;9.33;;;5.93;;
63110;SDS011;49201;53.426;10.300;2023-03-01T03:40:28;9.43;;;5.47;;
63110;SDS011;49201;53.426;10.300;2023-03-01T03:42:54;10.20;;;6.13;;
63110;SDS011;49201;53.426;10.300;2023-03-01T03:45:19;8.97;;;5.80;;
63110;SDS011;49201;53.426;10.300;2023-03-01T03:47:45;11.13;;;5.47;;
63110;SDS011;49201;53.426;10.300;2023-03-01T03:50:12;8.07;;;5.30;;
63110;SDS011;49201;53.426;10.300;2023-03-01T03:52:39;10.80;;;5.47;;
63110;SDS011;49201;53.426;10.300;2023-03-01T03:55:06;8.43;;;5.87;;
63110;SDS011;49201;53.426;10.300;2023-03-01T03:57:39;7.00;;;5.20;;
63110;SDS011;49201;53.426;10.300;2023-03-01T04:00:06;8.23;;;5.50;;
63110;SDS011;49201;53.426;10.300;2023-03-01T04:02:39;8.27;;;5.70;;
63110;SDS011;49201;53.426;10.300;2023-03-01T04:05:05;7.63;;;5.37;;
63110;SDS011;49201;53.426;10.300;2023-03-01T04:07:31;10.67;;;5.17;;
63110;SDS011;49201;53.426;10.300;2023-03-01T04:09:57;9.33;;;5.40;;
63110;SDS011;49201;53.426;10.300;2023-03-01T04:12:22;7.83;;;5.30;;
63110;SDS011;49201;53.426;10.300;2023-03-01T04:14:48;7.50;;;5.30;;
63110;SDS011;49201;53.426;10.300;2023-03-01T04:17:14;7.80;;;5.50;;
63110;SDS011;49201;53.426;10.300;2023-03-01T04:19:39;8.77;;;5.97;;
63110;SDS011;49201;53.426;10.300;2023-03-01T04:22:05;9.13;;;5.67;;
63110;SDS011;49201;53.426;10.300;2023-03-01T04:24:37;10.30;;;5.97;;
63110;SDS011;49201;53.426;10.300;2023-03-01T04:27:03;8.40;;;5.67;;
63110;SDS011;49201;53.426;10.300;2023-03-01T04:29:28;10.57;;;6.10;;
63110;SDS011;49201;53.426;10.300;2023-03-01T04:31:54;9.10;;;5.87;;
63110;SDS011;49201;53.426;10.300;2023-03-01T04:34:19;10.27;;;6.07;;
63110;SDS011;49201;53.426;10.300;2023-03-01T04:36:45;7.93;;;5.73;;
63110;SDS011;49201;53.426;10.300;2023-03-01T04:39:11;10.43;;;6.07;;
63110;SDS011;49201;53.426;10.300;2023-03-01T04:41:39;9.83;;;6.30;;
63110;SDS011;49201;53.426;10.300;2023-03-01T04:44:05;9.53;;;6.00;;
63110;SDS011;49201;53.426;10.300;2023-03-01T04:46:31;8.10;;;5.93;;
63110;SDS011;49201;53.426;10.300;2023-03-01T04:48:57;7.77;;;5.90;;
63110;SDS011;49201;53.426;10.300;2023-03-01T04:51:22;8.67;;;6.03;;
63110;SDS011;49201;53.426;10.300;2023-03-01T04:53:48;8.73;;;6.33;;
63110;SDS011;49201;53.426;10.300;2023-03-01T04:56:14;6.60;;;4.80;;
63110;SDS011;49201;53.426;10.300;2023-03-01T04:58:40;7.53;;;5.50;;
63110;SDS011;49201;53.426;10.300;2023-03-01T05:01:13;7.20;;;5.73;;
63110;SDS011;49201;53.426;10.300;2023-03-01T05:03:44;8.03;;;5.70;;
63110;SDS011;49201;53.426;10.300;2023-03-01T05:06:11;10.27;;;7.23;;
63110;SDS011;49201;53.426;10.300;2023-03-01T05:08:38;13.03;;;6.60;;
63110;SDS011;49201;53.426;10.300;2023-03-01T05:11:04;9.23;;;6.20;;
63110;SDS011;49201;53.426;10.300;2023-03-01T05:13:30;10.57;;;6.73;;
63110;SDS011;49201;53.426;10.300;2023-03-01T05:15:57;9.03;;;5.90;;
63110;SDS011;49201;53.426;10.300;2023-03-01T05:18:25;10.20;;;6.93;;
63110;SDS011;49201;53.426;10.300;2023-03-01T05:20:52;9.30;;;6.43;;
63110;SDS011;49201;53.426;10.300;2023-03-01T05:23:21;7.63;;;5.80;;
63110;SDS011;49201;53.426;10.300;2023-03-01T05:25:47;9.53;;;6.60;;
63110;SDS011;49201;53.426;10.300;2023-03-01T05:28:14;10.10;;;6.70;;
63110;SDS011;49201;53.426;10.300;2023-03-01T05:30:40;12.67;;;6.70;;
63110;SDS011;49201;53.426;10.300;2023-03-01T05:33:06;9.57;;;6.40;;
63110;SDS011;49201;53.426;10.300;2023-03-01T05:35:41;10.93;;;6.63;;
63110;SDS011;49201;53.426;10.300;2023-03-01T05:38:08;11.03;;;6.07;;
63110;SDS011;49201;53.426;10.300;2023-03-01T05:40:38;10.77;;;6.13;;
63110;SDS011;49201;53.426;10.300;2023-03-01T05:43:05;9.07;;;6.20;;
63110;SDS011;49201;53.426;10.300;2023-03-01T05:45:31;11.63;;;5.80;;
63110;SDS011;49201;53.426;10.300;2023-03-01T05:47:59;10.47;;;6.80;;
63110;SDS011;49201;53.426;10.300;2023-03-01T05:50:26;8.43;;;5.97;;
63110;SDS011;49201;53.426;10.300;2023-03-01T05:53:26;9.30;;;6.47;;
63110;SDS011;49201;53.426;10.300;2023-03-01T05:55:48;10.77;;;6.80;;
63110;SDS011;49201;53.426;10.300;2023-03-01T05:58:15;9.20;;;5.47;;
63110;SDS011;49201;53.426;10.300;2023-03-01T06:00:44;7.70;;;5.60;;
63110;SDS011;49201;53.426;10.300;2023-03-01T06:03:11;8.03;;;5.50;;
63110;SDS011;49201;53.426;10.300;2023-03-01T06:05:39;6.97;;;4.87;;
63110;SDS011;49201;53.426;10.300;2023-03-01T06:08:05;7.50;;;4.83;;
63110;SDS011;49201;53.426;10.300;2023-03-01T06:10:32;9.07;;;5.70;;
63110;SDS011;49201;53.426;10.300;2023-03-01T06:12:57;8.30;;;5.67;;
63110;SDS011;49201;53.426;10.300;2023-03-01T06:15:23;10.27;;;5.00;;
63110;SDS011;49201;53.426;10.300;2023-03-01T06:17:49;7.53;;;4.93;;
63110;SDS011;49201;53.426;10.300;2023-03-01T06:20:16;11.10;;;5.27;;
63110;SDS011;49201;53.426;10.300;2023-03-01T06:22:46;7.43;;;4.93;;
63110;SDS011;49201;53.426;10.300;2023-03-01T06:25:13;6.43;;;4.50;;
63110;SDS011;49201;53.426;10.300;2023-03-01T06:27:41;8.23;;;4.83;;
63110;SDS011;49201;53.426;10.300;2023-03-01T06:30:07;8.37;;;5.60;;
63110;SDS011;49201;53.426;10.300;2023-03-01T06:32:35;8.73;;;5.60;;
63110;SDS011;49201;53.426;10.300;2023-03-01T06:35:01;7.20;;;5.23;;
63110;SDS011;49201;53.426;10.300;2023-03-01T06:37:26;7.87;;;4.80;;
63110;SDS011;49201;53.426;10.300;2023-03-01T06:39:52;9.23;;;5.67;;
63110;SDS011;49201;53.426;10.300;2023-03-01T06:42:17;5.83;;;4.43;;
63110;SDS011;49201;53.426;10.300;2023-03-01T06:44:43;7.30;;;5.20;;
63110;SDS011;49201;53.426;10.300;2023-03-01T06:47:09;10.07;;;6.57;;
63110;SDS011;49201;53.426;10.300;2023-03-01T06:49:35;9.03;;;6.30;;
63110;SDS011;49201;53.426;10.300;2023-03-01T06:52:00;7.93;;;6.20;;
63110;SDS011;49201;53.426;10.300;2023-03-01T06:54:26;9.83;;;5.87;;
63110;SDS011;49201;53.426;10.300;2023-03-01T06:56:51;6.40;;;5.00;;
63110;SDS011;49201;53.426;10.300;2023-03-01T06:59:18;6.93;;;5.10;;
63110;SDS011;49201;53.426;10.300;2023-03-01T07:01:44;6.80;;;5.27;;
63110;SDS011;49201;53.426;10.300;2023-03-01T07:04:10;8.60;;;5.33;;
63110;SDS011;49201;53.426;10.300;2023-03-01T07:06:36;10.03;;;4.90;;
63110;SDS011;49201;53.426;10.300;2023-03-01T07:09:01;8.07;;;5.03;;
63110;SDS011;49201;53.426;10.300;2023-03-01T07:11:27;8.00;;;5.10;;
63110;SDS011;49201;53.426;10.300;2023-03-01T07:13:52;10.97;;;4.80;;
63110;SDS011;49201;53.426;10.300;2023-03-01T07:16:18;7.13;;;5.03;;
63110;SDS011;49201;53.426;10.300;2023-03-01T07:18:45;5.97;;;4.60;;
63110;SDS011;49201;53.426;10.300;2023-03-01T07:21:11;6.93;;;4.40;;
63110;SDS011;49201;53.426;10.300;2023-03-01T07:23:38;9.37;;;4.93;;
63110;SDS011;49201;53.426;10.300;2023-03-01T07:26:03;7.83;;;4.53;;
63110;SDS011;49201;53.426;10.300;2023-03-01T07:28:29;7.23;;;4.60;;
63110;SDS011;49201;53.426;10.300;2023-03-01T07:31:00;6.87;;;4.13;;
63110;SDS011;49201;53.426;10.300;2023-03-01T07:33:27;10.00;;;4.40;;
63110;SDS011;49201;53.426;10.300;2023-03-01T07:35:58;6.77;;;4.40;;
63110;SDS011;49201;53.426;10.300;2023-03-01T07:38:26;7.73;;;4.77;;
63110;SDS011;49201;53.426;10.300;2023-03-01T07:40:52;7.10;;;4.43;;
63110;SDS011;49201;53.426;10.300;2023-03-01T07:43:18;6.50;;;4.30;;
63110;SDS011;49201;53.426;10.300;2023-03-01T07:45:45;6.93;;;4.10;;
63110;SDS011;49201;53.426;10.300;2023-03-01T07:48:11;5.77;;;4.43;;
63110;SDS011;49201;53.426;10.300;2023-03-01T07:50:36;6.60;;;4.43;;
63110;SDS011;49201;53.426;10.300;2023-03-01T07:53:02;9.00;;;4.03;;
63110;SDS011;49201;53.426;10.300;2023-03-01T07:55:27;8.27;;;4.07;;
63110;SDS011;49201;53.426;10.300;2023-03-01T07:57:53;4.50;;;3.83;;
63110;SDS011;49201;53.426;10.300;2023-03-01T08:00:18;6.37;;;3.90;;
63110;SDS011;49201;53.426;10.300;2023-03-01T08:02:44;6.87;;;4.13;;
63110;SDS011;49201;53.426;10.300;2023-03-01T08:05:10;5.60;;;3.90;;
63110;SDS011;49201;53.426;10.300;2023-03-01T08:07:35;8.47;;;4.50;;
63110;SDS011;49201;53.426;10.300;2023-03-01T08:10:01;5.93;;;4.30;;
63110;SDS011;49201;53.426;10.300;2023-03-01T08:12:27;7.20;;;4.23;;
63110;SDS011;49201;53.426;10.300;2023-03-01T08:14:53;6.77;;;4.53;;
63110;SDS011;49201;53.426;10.300;2023-03-01T08:17:19;6.20;;;4.43;;
63110;SDS011;49201;53.426;10.300;2023-03-01T08:19:44;8.73;;;4.63;;
63110;SDS011;49201;53.426;10.300;2023-03-01T08:22:10;6.57;;;4.10;;
63110;SDS011;49201;53.426;10.300;2023-03-01T08:24:35;6.90;;;4.53;;
63110;SDS011;49201;53.426;10.300;2023-03-01T08:27:01;8.73;;;4.63;;
63110;SDS011;49201;53.426;10.300;2023-03-01T08:29:28;5.33;;;4.00;;
63110;SDS011;49201;53.426;10.300;2023-03-01T08:31:55;5.70;;;3.50;;
63110;SDS011;49201;53.426;10.300;2023-03-01T08:34:20;6.40;;;4.17;;
63110;SDS011;49201;53.426;10.300;2023-03-01T08:36:46;9.33;;;5.43;;
63110;SDS011;49201;53.426;10.300;2023-03-01T08:39:12;9.23;;;5.00;;
63110;SDS011;49201;53.426;10.300;2023-03-01T08:41:40;6.77;;;4.00;;
63110;SDS011;49201;53.426;10.300;2023-03-01T08:44:06;5.13;;;3.80;;
63110;SDS011;49201;53.426;10.300;2023-03-01T08:46:37;4.10;;;3.33;;
63110;SDS011;49201;53.426;10.300;2023-03-01T08:49:04;5.97;;;4.27;;
63110;SDS011;49201;53.426;10.300;2023-03-01T08:51:32;5.53;;;4.20;;
63110;SDS011;49201;53.426;10.300;2023-03-01T08:54:20;5.77;;;3.77;;
63110;SDS011;49201;53.426;10.300;2023-03-01T08:56:46;9.53;;;4.60;;
63110;SDS011;49201;53.426;10.300;2023-03-01T08:59:13;9.73;;;5.93;;
63110;SDS011;49201;53.426;10.300;2023-03-01T09:01:39;39.23;;;18.37;;
63110;SDS011;49201;53.426;10.300;2023-03-01T09:04:05;22.67;;;10.57;;
63110;SDS011;49201;53.426;10.300;2023-03-01T09:06:32;9.77;;;6.07;;
63110;SDS011;49201;53.426;10.300;2023-03-01T09:08:59;30.53;;;13.97;;
63110;SDS011;49201;53.426;10.300;2023-03-01T09:11:25;18.27;;;9.57;;
63110;SDS011;49201;53.426;10.300;2023-03-01T09:13:50;50.83;;;22.43;;
63110;SDS011;49201;53.426;10.300;2023-03-01T09:16:17;24.90;;;12.90;;
63110;SDS011;49201;53.426;10.300;2023-03-01T09:18:45;10.93;;;6.53;;
63110;SDS011;49201;53.426;10.300;2023-03-01T09:21:15;5.77;;;5.17;;
63110;SDS011;49201;53.426;10.300;2023-03-01T09:23:43;6.77;;;5.37;;
63110;SDS011;49201;53.426;10.300;2023-03-01T09:26:14;8.27;;;5.17;;
63110;SDS011;49201;53.426;10.300;2023-03-01T09:28:41;9.00;;;5.83;;
63110;SDS011;49201;53.426;10.300;2023-03-01T09:31:07;7.60;;;5.63;;
63110;SDS011;49201;53.426;10.300;2023-03-01T09:33:33;8.87;;;5.93;;
63110;SDS011;49201;53.426;10.300;2023-03-01T09:36:00;7.73;;;5.90;;
63110;SDS011;49201;53.426;10.300;2023-03-01T09:38:28;7.50;;;5.40;;
63110;SDS011;49201;53.426;10.300;2023-03-01T09:40:54;7.20;;;6.03;;
63110;SDS011;49201;53.426;10.300;2023-03-01T09:43:41;9.90;;;6.60;;
63110;SDS011;49201;53.426;10.300;2023-03-01T09:46:11;13.10;;;7.00;;
63110;SDS011;49201;53.426;10.300;2023-03-01T09:48:46;11.33;;;7.30;;
63110;SDS011;49201;53.426;10.300;2023-03-01T09:51:21;10.50;;;7.63;;
63110;SDS011;49201;53.426;10.300;2023-03-01T09:53:51;14.03;;;7.53;;
63110;SDS011;49201;53.426;10.300;2023-03-01T09:56:20;10.97;;;7.53;;
63110;SDS011;49201;53.426;10.300;2023-03-01T09:58:59;8.00;;;6.43;;
63110;SDS011;49201;53.426;10.300;2023-03-01T10:01:29;11.07;;;7.03;;
63110;SDS011;49201;53.426;10.300;2023-03-01T10:04:05;9.57;;;7.73;;
63110;SDS011;49201;53.426;10.300;2023-03-01T10:06:36;12.67;;;8.77;;
63110;SDS011;49201;53.426;10.300;2023-03-01T10:09:19;13.03;;;8.97;;
63110;SDS011;49201;53.426;10.300;2023-03-01T10:11:50;9.43;;;8.27;;
63110;SDS011;49201;53.426;10.300;2023-03-01T10:22:50;10.07;;;8.17;;
63110;SDS011;49201;53.426;10.300;2023-03-01T10:25:23;10.03;;;7.90;;
63110;SDS011;49201;53.426;10.300;2023-03-01T10:30:55;9.53;;;7.70;;
63110;SDS011;49201;53.426;10.300;2023-03-01T10:33:23;10.45;;;7.53;;
63110;SDS011;49201;53.426;10.300;2023-03-01T10:35:53;11.00;;;8.43;;
63110;SDS011;49201;53.426;10.300;2023-03-01T10:38:19;10.82;;;7.97;;
63110;SDS011;49201;53.426;10.300;2023-03-01T10:43:24;10.13;;;8.00;;
63110;SDS011;49201;53.426;10.300;2023-03-01T10:45:51;11.93;;;7.93;;
63110;SDS011;49201;53.426;10.300;2023-03-01T10:48:24;9.52;;;7.68;;
63110;SDS011;49201;53.426;10.300;2023-03-01T10:53:25;10.02;;;8.05;;
63110;SDS011;49201;53.426;10.300;2023-03-01T10:56:04;11.98;;;9.02;;
63110;SDS011;49201;53.426;10.300;2023-03-01T10:58:33;12.38;;;8.63;;
63110;SDS011;49201;53.426;10.300;2023-03-01T11:03:37;10.63;;;8.18;;
63110;SDS011;49201;53.426;10.300;2023-03-01T11:16:37;32.33;;;23.30;;
63110;SDS011;49201;53.426;10.300;2023-03-01T11:19:13;29.33;;;21.27;;
63110;SDS011;49201;53.426;10.300;2023-03-01T11:21:50;20.77;;;14.37;;
63110;SDS011;49201;53.426;10.300;2023-03-01T11:27:26;10.53;;;9.37;;
63110;SDS011;49201;53.426;10.300;2023-03-01T11:29:59;11.80;;;8.97;;
63110;SDS011;49201;53.426;10.300;2023-03-01T11:32:41;11.60;;;9.57;;
63110;SDS011;49201;53.426;10.300;2023-03-01T11:35:14;12.40;;;9.30;;
63110;SDS011;49201;53.426;10.300;2023-03-01T11:41:06;11.18;;;9.20;;
63110;SDS011;49201;53.426;10.300;2023-03-01T11:43:40;10.27;;;9.20;;
63110;SDS011;49201;53.426;10.300;2023-03-01T11:54:52;10.20;;;9.20;;
63110;SDS011;49201;53.426;10.300;2023-03-01T12:06:00;9.48;;;8.35;;
63110;SDS011;49201;53.426;10.300;2023-03-01T12:08:55;9.88;;;8.80;;
63110;SDS011;49201;53.426;10.300;2023-03-01T12:15:05;10.30;;;9.10;;
63110;SDS011;49201;53.426;10.300;2023-03-01T12:17:37;9.27;;;8.23;;
63110;SDS011;49201;53.426;10.300;2023-03-01T12:28:49;8.63;;;7.80;;
63110;SDS011;49201;53.426;10.300;2023-03-01T12:42:36;8.77;;;7.85;;
63110;SDS011;49201;53.426;10.300;2023-03-01T12:51:26;8.55;;;7.63;;
63110;SDS011;49201;53.426;10.300;2023-03-01T12:53:55;9.05;;;8.15;;
63110;SDS011;49201;53.426;10.300;2023-03-01T12:56:23;9.65;;;8.65;;
63110;SDS011;49201;53.426;10.300;2023-03-01T12:58:55;8.95;;;7.82;;
63110;SDS011;49201;53.426;10.300;2023-03-01T13:01:36;11.43;;;7.60;;
63110;SDS011;49201;53.426;10.300;2023-03-01T13:17:55;11.33;;;8.77;;
63110;SDS011;49201;53.426;10.300;2023-03-01T13:20:27;12.60;;;9.63;;
63110;SDS011;49201;53.426;10.300;2023-03-01T13:23:04;11.40;;;9.27;;
63110;SDS011;49201;53.426;10.300;2023-03-01T13:25:35;10.23;;;8.77;;
63110;SDS011;49201;53.426;10.300;2023-03-01T13:31:01;8.20;;;7.27;;
63110;SDS011;49201;53.426;10.300;2023-03-01T13:35:54;8.67;;;7.77;;
63110;SDS011;49201;53.426;10.300;2023-03-01T13:41:14;9.50;;;7.57;;
63110;SDS011;49201;53.426;10.300;2023-03-01T13:43:42;9.30;;;7.90;;
63110;SDS011;49201;53.426;10.300;2023-03-01T13:46:20;10.70;;;8.30;;
63110;SDS011;49201;53.426;10.300;2023-03-01T13:48:49;8.77;;;7.90;;
63110;SDS011;49201;53.426;10.300;2023-03-01T13:51:20;10.17;;;8.40;;
63110;SDS011;49201;53.426;10.300;2023-03-01T13:53:48;10.57;;;8.70;;
63110;SDS011;49201;53.426;10.300;2023-03-01T13:56:19;9.63;;;7.90;;
63110;SDS011;49201;53.426;10.300;2023-03-01T14:03:48;10.90;;;7.60;;
63110;SDS011;49201;53.426;10.300;2023-03-01T14:06:24;10.83;;;6.83;;
63110;SDS011;49201;53.426;10.300;2023-03-01T14:09:02;8.73;;;7.67;;
63110;SDS011;49201;53.426;10.300;2023-03-01T14:19:28;9.63;;;7.10;;
63110;SDS011;49201;53.426;10.300;2023-03-01T14:24:49;7.60;;;6.40;;
63110;SDS011;49201;53.426;10.300;2023-03-01T14:27:17;8.87;;;6.03;;
63110;SDS011;49201;53.426;10.300;2023-03-01T14:29:43;7.57;;;6.57;;
63110;SDS011;49201;53.426;10.300;2023-03-01T14:32:24;8.07;;;6.07;;
63110;SDS011;49201;53.426;10.300;2023-03-01T14:34:52;9.40;;;6.70;;
63110;SDS011;49201;53.426;10.300;2023-03-01T14:37:19;8.73;;;6.97;;
63110;SDS011;49201;53.426;10.300;2023-03-01T14:39:50;10.20;;;7.20;;
63110;SDS011;49201;53.426;10.300;2023-03-01T14:42:17;10.50;;;6.87;;
63110;SDS011;49201;53.426;10.300;2023-03-01T14:44:48;10.10;;;6.93;;
63110;SDS011;49201;53.426;10.300;2023-03-01T14:47:19;9.00;;;7.23;;
63110;SDS011;49201;53.426;10.300;2023-03-01T14:52:47;11.37;;;7.03;;
63110;SDS011;49201;53.426;10.300;2023-03-01T14:55:24;14.17;;;10.77;;
63110;SDS011;49201;53.426;10.300;2023-03-01T14:57:53;9.20;;;7.90;;
63110;SDS011;49201;53.426;10.300;2023-03-01T15:00:27;7.03;;;6.33;;
63110;SDS011;49201;53.426;10.300;2023-03-01T15:02:54;7.07;;;5.40;;
63110;SDS011;49201;53.426;10.300;2023-03-01T15:07:56;7.07;;;5.07;;
63110;SDS011;49201;53.426;10.300;2023-03-01T15:10:25;9.83;;;7.80;;
63110;SDS011;49201;53.426;10.300;2023-03-01T15:12:52;7.97;;;5.20;;
63110;SDS011;49201;53.426;10.300;2023-03-01T15:15:19;6.23;;;4.93;;
63110;SDS011;49201;53.426;10.300;2023-03-01T15:17:48;7.67;;;4.87;;
63110;SDS011;49201;53.426;10.300;2023-03-01T15:20:19;7.33;;;5.13;;
63110;SDS011;49201;53.426;10.300;2023-03-01T15:22:51;5.57;;;4.83;;
63110;SDS011;49201;53.426;10.300;2023-03-01T15:25:18;6.10;;;4.97;;
63110;SDS011;49201;53.426;10.300;2023-03-01T15:27:45;7.37;;;4.73;;
63110;SDS011;49201;53.426;10.300;2023-03-01T15:30:18;6.67;;;5.00;;
63110;SDS011;49201;53.426;10.300;2023-03-01T15:32:47;5.53;;;4.50;;
63110;SDS011;49201;53.426;10.300;2023-03-01T15:38:03;7.30;;;6.10;;
63110;SDS011;49201;53.426;10.300;2023-03-01T15:40:29;6.53;;;4.43;;
63110;SDS011;49201;53.426;10.300;2023-03-01T15:42:59;5.83;;;4.30;;
63110;SDS011;49201;53.426;10.300;2023-03-01T15:45:55;6.60;;;4.30;;
63110;SDS011;49201;53.426;10.300;2023-03-01T15:48:22;4.33;;;3.70;;
63110;SDS011;49201;53.426;10.300;2023-03-01T15:50:54;5.80;;;3.87;;
63110;SDS011;49201;53.426;10.300;2023-03-01T15:53:22;5.27;;;3.47;;
63110;SDS011;49201;53.426;10.300;2023-03-01T15:55:48;4.83;;;3.53;;
63110;SDS011;49201;53.426;10.300;2023-03-01T15:58:21;4.33;;;3.30;;
63110;SDS011;49201;53.426;10.300;2023-03-01T16:00:48;3.50;;;3.20;;
63110;SDS011;49201;53.426;10.300;2023-03-01T16:03:20;5.30;;;3.73;;
63110;SDS011;49201;53.426;10.300;2023-03-01T16:05:47;4.87;;;3.70;;
63110;SDS011;49201;53.426;10.300;2023-03-01T16:08:15;5.50;;;3.30;;
63110;SDS011;49201;53.426;10.300;2023-03-01T16:10:41;5.83;;;3.70;;
63110;SDS011;49201;53.426;10.300;2023-03-01T16:13:10;5.57;;;3.90;;
63110;SDS011;49201;53.426;10.300;2023-03-01T16:15:36;5.77;;;3.77;;
63110;SDS011;49201;53.426;10.300;2023-03-01T16:18:03;5.20;;;4.00;;
63110;SDS011;49201;53.426;10.300;2023-03-01T16:20:30;6.23;;;4.50;;
63110;SDS011;49201;53.426;10.300;2023-03-01T16:23:00;6.03;;;3.77;;
63110;SDS011;49201;53.426;10.300;2023-03-01T16:25:27;5.60;;;3.30;;
63110;SDS011;49201;53.426;10.300;2023-03-01T16:27:53;6.37;;;3.90;;
63110;SDS011;49201;53.426;10.300;2023-03-01T16:30:20;7.43;;;3.80;;
63110;SDS011;49201;53.426;10.300;2023-03-01T16:32:47;5.53;;;3.40;;
63110;SDS011;49201;53.426;10.300;2023-03-01T16:35:16;4.80;;;3.40;;
63110;SDS011;49201;53.426;10.300;2023-03-01T16:37:44;5.93;;;3.83;;
63110;SDS011;49201;53.426;10.300;2023-03-01T16:42:43;5.33;;;3.33;;
63110;SDS011;49201;53.426;10.300;2023-03-01T16:45:08;7.33;;;3.23;;
63110;SDS011;49201;53.426;10.300;2023-03-01T16:47:34;4.77;;;3.03;;
63110;SDS011;49201;53.426;10.300;2023-03-01T16:50:00;4.93;;;2.93;;
63110;SDS011;49201;53.426;10.300;2023-03-01T16:52:25;3.83;;;2.87;;
63110;SDS011;49201;53.426;10.300;2023-03-01T16:54:51;5.37;;;3.50;;
63110;SDS011;49201;53.426;10.300;2023-03-01T16:57:17;4.83;;;3.10;;
63110;SDS011;49201;53.426;10.300;2023-03-01T16:59:43;4.67;;;2.90;;
63110;SDS011;49201;53.426;10.300;2023-03-01T17:02:10;3.73;;;2.67;;